Time;durP1;ratioP1;P1;durP2;ratioP2;P2;SDS_P1;SDS_P2;PMS_P1;PMS_P2;Temp;Humidity;BMP_temperature;BMP_pressure;BME280_temperature;BME280_humidity;BME280_pressure;Samples;Min_cycle;Max_cycle;Signal;HPM_P1;HPM_P2
2022/03/05 00:00:08;;;;;;;17.60;4.60;;;;;;;-2.10;77.38;100807.20;104999;1274;60609;-70
2022/03/05 00:03:06;;;;;;;16.20;4.80;;;;;;;-1.97;77.30;100804.06;105213;1273;71816;-70
2022/03/05 00:05:54;;;;;;;15.70;4.80;;;;;;;-1.86;76.75;100805.81;104746;1274;66962;-70
2022/03/05 00:08:41;;;;;;;14.00;3.90;;;;;;;-1.77;76.52;100805.16;105227;1274;71374;-71
2022/03/05 00:11:28;;;;;;;11.10;3.20;;;;;;;-1.69;76.46;100809.39;104268;1275;1003099;-71
2022/03/05 00:14:16;;;;;;;11.50;3.70;;;;;;;-1.61;76.30;100809.27;105052;1274;60511;-70
2022/03/05 00:17:04;;;;;;;9.80;3.10;;;;;;;-1.56;76.05;100809.36;104977;1274;72322;-70
2022/03/05 00:19:51;;;;;;;10.70;2.90;;;;;;;-1.50;75.87;100812.23;105023;1274;66899;-71
2022/03/05 00:22:40;;;;;;;13.20;3.00;;;;;;;-1.45;75.74;100812.51;104135;1274;1003709;-71
2022/03/05 00:25:27;;;;;;;10.60;3.10;;;;;;;-1.43;75.65;100812.63;105161;1273;59398;-72
2022/03/05 00:28:15;;;;;;;12.90;3.90;;;;;;;-1.43;75.25;100809.67;105104;1274;59603;-71
2022/03/05 00:31:03;;;;;;;13.60;3.30;;;;;;;-1.46;75.57;100807.99;105068;1274;70555;-71
2022/03/05 00:33:52;;;;;;;10.20;2.60;;;;;;;-1.46;76.44;100811.46;104952;1274;67035;-71
2022/03/05 00:36:43;;;;;;;9.70;2.50;;;;;;;-1.43;76.91;100810.55;104932;1274;71869;-73
2022/03/05 00:39:33;;;;;;;11.40;2.50;;;;;;;-1.40;77.30;100803.53;104447;1274;1003009;-71
2022/03/05 00:42:21;;;;;;;8.40;2.30;;;;;;;-1.32;77.87;100806.36;104826;1274;60454;-71
2022/03/05 00:45:09;;;;;;;8.80;2.10;;;;;;;-1.26;78.31;100805.39;105106;1274;72237;-70
2022/03/05 00:47:56;;;;;;;8.10;2.10;;;;;;;-1.18;78.21;100801.79;104513;1274;1003137;-69
2022/03/05 00:50:43;;;;;;;9.50;2.00;;;;;;;-1.12;78.24;100802.73;104947;1274;71790;-70
2022/03/05 00:53:31;;;;;;;6.80;1.90;;;;;;;-1.08;78.23;100803.69;104287;1273;1003672;-70
2022/03/05 00:56:18;;;;;;;6.90;1.80;;;;;;;-1.04;78.60;100801.70;104967;1274;59291;-70
2022/03/05 00:59:05;;;;;;;7.00;1.70;;;;;;;-1.03;78.65;100801.34;104098;1274;1003621;-74
2022/03/05 01:01:53;;;;;;;6.20;1.80;;;;;;;-0.99;78.84;100801.61;104818;1274;65794;-71
2022/03/05 01:04:40;;;;;;;6.90;1.40;;;;;;;-0.97;78.84;100805.07;104868;1273;72907;-73
2022/03/05 01:07:31;;;;;;;7.00;1.80;;;;;;;-0.96;79.40;100800.87;105172;1274;59404;-71
2022/03/05 01:10:21;;;;;;;7.10;1.60;;;;;;;-0.93;79.50;100801.50;105026;1271;59615;-71
2022/03/05 01:13:09;;;;;;;8.50;1.90;;;;;;;-0.90;79.21;100805.45;104874;1274;70950;-71
2022/03/05 01:16:01;;;;;;;8.90;1.70;;;;;;;-0.87;79.34;100803.15;104944;1274;66761;-71
2022/03/05 01:18:48;;;;;;;6.80;1.80;;;;;;;-0.84;79.18;100807.79;105065;1272;71945;-72
2022/03/05 01:21:37;;;;;;;5.50;1.50;;;;;;;-0.81;79.21;100807.57;104916;1274;59355;-71
2022/03/05 01:24:24;;;;;;;8.30;2.10;;;;;;;-0.82;78.98;100807.40;104951;1274;60845;-70
2022/03/05 01:27:14;;;;;;;6.90;2.20;;;;;;;-0.84;78.38;100808.14;104782;1274;72490;-70
2022/03/05 01:30:02;;;;;;;8.20;1.80;;;;;;;-0.87;78.23;100803.14;104790;1277;68043;-70
2022/03/05 01:32:50;;;;;;;7.90;1.40;;;;;;;-0.90;77.97;100808.07;104841;1274;72949;-71
2022/03/05 01:35:37;;;;;;;6.00;1.40;;;;;;;-0.93;77.59;100809.52;103939;1276;1002949;-71
2022/03/05 01:38:24;;;;;;;6.50;1.70;;;;;;;-0.97;77.67;100807.67;104846;1274;59768;-72
2022/03/05 01:41:13;;;;;;;5.70;1.30;;;;;;;-0.97;77.91;100811.16;104864;1277;72398;-72
2022/03/05 01:44:01;;;;;;;9.10;1.60;;;;;;;-0.98;77.83;100805.42;105033;1274;68931;-72
2022/03/05 01:46:48;;;;;;;6.90;1.70;;;;;;;-1.00;77.76;100807.73;104485;1277;72933;-73
2022/03/05 01:49:36;;;;;;;7.50;1.70;;;;;;;-1.00;77.67;100811.57;105309;1274;59306;-73
2022/03/05 01:52:23;;;;;;;5.00;1.20;;;;;;;-1.00;77.78;100815.74;104873;1273;60292;-72
2022/03/05 01:55:14;;;;;;;6.80;1.40;;;;;;;-0.99;77.75;100819.56;104876;1274;71728;-72
2022/03/05 01:58:04;;;;;;;6.90;1.40;;;;;;;-1.00;77.75;100816.97;105050;1274;68304;-72
2022/03/05 02:00:50;;;;;;;5.20;1.50;;;;;;;-1.03;77.61;100820.48;105106;1274;71639;-73
2022/03/05 02:03:38;;;;;;;6.10;1.40;;;;;;;-1.04;77.71;100824.00;104680;1274;59300;-72
2022/03/05 02:06:26;;;;;;;5.40;1.30;;;;;;;-1.06;77.41;100821.59;104866;1274;59347;-72
2022/03/05 02:09:13;;;;;;;6.70;1.30;;;;;;;-1.07;77.13;100820.21;104803;1274;70768;-71
2022/03/05 02:12:02;;;;;;;7.30;1.70;;;;;;;-1.06;77.23;100822.29;104752;1274;66791;-70
2022/03/05 02:14:49;;;;;;;6.60;1.20;;;;;;;-1.05;77.02;100826.28;105199;1274;71303;-71
2022/03/05 02:17:37;;;;;;;4.70;1.20;;;;;;;-1.02;77.10;100823.61;105053;1274;59326;-71
2022/03/05 02:20:28;;;;;;;5.90;1.20;;;;;;;-1.00;77.00;100813.30;104999;1274;60507;-70
2022/03/05 02:23:15;;;;;;;7.90;1.40;;;;;;;-0.99;76.54;100807.89;104800;1274;72708;-70
2022/03/05 02:26:06;;;;;;;5.40;1.30;;;;;;;-1.03;75.88;100806.73;104854;1274;66918;-70
2022/03/05 02:28:56;;;;;;;6.00;1.50;;;;;;;-1.01;75.34;100809.31;105121;1274;71876;-70
2022/03/05 02:31:44;;;;;;;6.30;1.30;;;;;;;-1.03;75.40;100805.88;105227;1274;59323;-70
2022/03/05 02:34:32;;;;;;;5.00;1.10;;;;;;;-1.03;75.40;100801.35;104793;1274;60531;-71
2022/03/05 02:37:19;;;;;;;6.20;1.10;;;;;;;-0.98;75.49;100802.30;105085;1274;72779;-70
2022/03/05 02:40:08;;;;;;;6.50;1.40;;;;;;;-0.96;75.19;100806.96;104785;1274;68315;-70
2022/03/05 02:42:55;;;;;;;6.60;1.50;;;;;;;-0.92;75.40;100807.07;104875;1273;72742;-71
2022/03/05 02:45:43;;;;;;;8.40;1.20;;;;;;;-0.89;75.03;100803.87;104841;1274;59222;-69
2022/03/05 02:48:33;;;;;;;4.50;1.00;;;;;;;-0.87;74.54;100805.40;104818;1274;60509;-69
2022/03/05 02:51:20;;;;;;;5.40;1.30;;;;;;;-0.88;74.30;100801.77;104916;1274;70983;-68
2022/03/05 02:54:08;;;;;;;5.70;1.30;;;;;;;-0.90;74.04;100807.20;105066;1272;68291;-68
2022/03/05 02:56:56;;;;;;;5.20;1.10;;;;;;;-0.90;74.08;100808.25;105016;1274;73194;-68
2022/03/05 02:59:46;;;;;;;5.00;1.10;;;;;;;-0.91;74.08;100807.05;105025;1274;59360;-69
2022/03/05 03:02:34;;;;;;;5.10;1.20;;;;;;;-0.92;73.87;100809.52;105179;1274;59476;-70
2022/03/05 03:05:22;;;;;;;5.20;1.20;;;;;;;-0.92;73.87;100808.98;105182;1273;72397;-70
2022/03/05 03:08:10;;;;;;;6.20;1.30;;;;;;;-0.92;74.15;100810.20;104941;1274;66652;-70
2022/03/05 03:11:00;;;;;;;7.50;1.20;;;;;;;-0.92;74.13;100813.86;105084;1274;74720;-70
2022/03/05 03:13:50;;;;;;;5.30;1.30;;;;;;;-0.92;74.01;100807.25;105022;1274;59485;-70
2022/03/05 03:16:38;;;;;;;5.40;1.20;;;;;;;-0.93;73.40;100809.36;105013;1274;60429;-71
2022/03/05 03:19:26;;;;;;;7.90;1.30;;;;;;;-0.93;73.27;100808.30;104982;1274;72408;-71
2022/03/05 03:22:14;;;;;;;4.50;1.20;;;;;;;-0.92;73.10;100808.28;104865;1272;68172;-70
2022/03/05 03:25:02;;;;;;;5.50;1.10;;;;;;;-0.91;73.13;100810.87;104859;1274;71754;-70
2022/03/05 03:27:51;;;;;;;5.20;0.90;;;;;;;-0.90;72.94;100813.11;105080;1274;59424;-70
2022/03/05 03:30:38;;;;;;;6.90;1.20;;;;;;;-0.91;72.81;100814.88;104860;1274;60534;-70
2022/03/05 03:33:25;;;;;;;4.70;1.10;;;;;;;-0.90;72.91;100813.48;104794;1274;71785;-70
2022/03/05 03:36:12;;;;;;;6.40;1.30;;;;;;;-0.91;72.61;100813.49;104909;1274;66714;-70
2022/03/05 03:39:00;;;;;;;4.60;1.10;;;;;;;-0.92;72.72;100819.62;104966;1274;72888;-70
2022/03/05 03:41:48;;;;;;;5.50;1.00;;;;;;;-0.93;72.60;100817.73;105077;1273;59363;-70
2022/03/05 03:44:36;;;;;;;5.30;1.20;;;;;;;-0.94;72.51;100821.04;105005;1274;60560;-71
2022/03/05 03:47:26;;;;;;;5.90;1.20;;;;;;;-0.97;72.21;100822.33;104795;1274;72460;-70
2022/03/05 03:50:17;;;;;;;4.10;1.10;;;;;;;-0.99;72.63;100822.88;105112;1274;68412;-70
2022/03/05 03:53:05;;;;;;;6.80;1.10;;;;;;;-0.99;72.74;100827.21;104170;1273;1002664;-70
2022/03/05 03:55:52;;;;;;;4.40;1.00;;;;;;;-1.02;72.02;100829.38;105064;1274;59361;-71
2022/03/05 03:58:40;;;;;;;5.40;1.30;;;;;;;-1.07;72.06;100826.13;104953;1274;59571;-71
2022/03/05 04:01:27;;;;;;;6.70;1.40;;;;;;;-1.04;72.16;100825.92;105012;1274;73226;-70
2022/03/05 04:04:15;;;;;;;6.20;1.40;;;;;;;-1.04;71.62;100829.59;104987;1274;67305;-71
2022/03/05 04:10:12;;;;;;;5.30;1.40;;;;;;;-1.05;71.11;100833.08;105015;1274;59287;-71
2022/03/05 04:12:59;;;;;;;4.90;1.20;;;;;;;-1.05;71.25;100836.39;105042;1274;59715;-71
2022/03/05 04:15:47;;;;;;;6.10;1.40;;;;;;;-1.07;70.69;100840.59;104926;1273;71642;-70
2022/03/05 04:18:35;;;;;;;4.50;1.00;;;;;;;-1.10;70.51;100842.94;105067;1274;67934;-72
2022/03/05 04:21:25;;;;;;;7.00;1.10;;;;;;;-1.14;70.26;100845.08;104635;1274;71536;-71
2022/03/05 04:24:12;;;;;;;5.60;1.10;;;;;;;-1.15;70.48;100846.66;104691;1274;59261;-70
2022/03/05 04:26:59;;;;;;;5.70;1.20;;;;;;;-1.16;69.99;100848.77;104845;1274;61700;-70
2022/03/05 04:29:47;;;;;;;5.80;1.30;;;;;;;-1.20;70.13;100846.73;105024;1274;72491;-75
2022/03/05 04:32:35;;;;;;;4.80;1.10;;;;;;;-1.21;70.10;100847.96;105314;1274;66407;-72
2022/03/05 04:35:22;;;;;;;3.90;0.90;;;;;;;-1.20;69.79;100854.06;104398;1274;1002164;-72
2022/03/05 04:38:12;;;;;;;3.90;1.00;;;;;;;-1.22;69.79;100854.27;105659;1273;59182;-71
2022/03/05 04:41:00;;;;;;;5.10;0.90;;;;;;;-1.23;69.48;100848.53;105495;1274;59334;-70
2022/03/05 04:43:49;;;;;;;5.30;1.20;;;;;;;-1.24;69.60;100850.80;105219;1274;70979;-71
2022/03/05 04:46:36;;;;;;;5.90;1.10;;;;;;;-1.26;68.61;100851.35;105157;1274;67979;-73
2022/03/05 04:49:23;;;;;;;5.30;1.00;;;;;;;-1.29;67.99;100853.16;104887;1273;71967;-71
2022/03/05 04:52:10;;;;;;;5.60;1.10;;;;;;;-1.30;68.63;100852.64;104923;1274;59357;-71
2022/03/05 04:54:57;;;;;;;5.70;1.30;;;;;;;-1.30;68.54;100857.00;105376;1272;61201;-70
2022/03/05 04:57:45;;;;;;;4.40;0.90;;;;;;;-1.30;67.96;100858.40;104982;1274;72304;-72
2022/03/05 05:00:32;;;;;;;6.90;1.20;;;;;;;-1.34;68.00;100853.59;105208;1274;69282;-71
2022/03/05 05:03:19;;;;;;;5.70;1.30;;;;;;;-1.36;67.15;100854.84;104654;1274;1003190;-71
2022/03/05 05:06:07;;;;;;;5.00;1.00;;;;;;;-1.42;66.57;100855.63;105155;1274;59284;-71
2022/03/05 05:08:55;;;;;;;6.40;1.20;;;;;;;-1.47;66.67;100854.82;104941;1273;59692;-73
2022/03/05 05:11:44;;;;;;;6.10;1.10;;;;;;;-1.52;66.71;100856.66;104563;1273;1003120;-71
2022/03/05 05:14:31;;;;;;;5.40;1.00;;;;;;;-1.58;66.92;100857.61;104880;1274;65813;-72
2022/03/05 05:17:18;;;;;;;5.20;1.20;;;;;;;-1.64;67.09;100862.39;105335;1274;71978;-73
2022/03/05 05:20:08;;;;;;;4.80;1.00;;;;;;;-1.66;67.28;100866.27;105348;1274;59551;-73
2022/03/05 05:22:56;;;;;;;4.30;1.00;;;;;;;-1.68;67.73;100863.33;105439;1273;60821;-73
2022/03/05 05:25:43;;;;;;;5.70;1.10;;;;;;;-1.67;67.86;100864.52;105407;1273;72823;-72
2022/03/05 05:28:31;;;;;;;5.40;1.10;;;;;;;-1.66;68.28;100861.90;105510;1274;68217;-72
2022/03/05 05:31:19;;;;;;;5.20;1.00;;;;;;;-1.63;68.12;100867.23;105178;1273;71644;-73
2022/03/05 05:34:06;;;;;;;5.10;1.10;;;;;;;-1.59;67.99;100870.69;105408;1273;59439;-75
2022/03/05 05:36:56;;;;;;;5.90;1.20;;;;;;;-1.60;67.70;100863.56;104753;1274;60768;-75
2022/03/05 05:39:43;;;;;;;8.70;1.50;;;;;;;-1.54;68.07;100872.87;105051;1272;72093;-74
2022/03/05 05:42:30;;;;;;;5.80;1.50;;;;;;;-1.47;67.98;100875.02;104909;1274;66282;-74
2022/03/05 05:45:21;;;;;;;7.30;1.40;;;;;;;-1.42;67.56;100873.02;104916;1274;73144;-73
2022/03/05 05:48:08;;;;;;;6.80;1.10;;;;;;;-1.39;67.04;100873.67;104407;1273;1003552;-73
2022/03/05 05:50:55;;;;;;;6.00;1.10;;;;;;;-1.33;67.32;100874.82;105183;1273;59641;-74
2022/03/05 05:53:45;;;;;;;5.90;1.30;;;;;;;-1.28;67.29;100876.30;105008;1273;71523;-73
2022/03/05 05:56:34;;;;;;;6.40;1.10;;;;;;;-1.22;66.86;100875.87;104939;1273;67949;-73
2022/03/05 05:59:21;;;;;;;4.60;1.10;;;;;;;-1.22;65.76;100874.80;104970;1276;72546;-71
2022/03/05 06:02:08;;;;;;;7.10;1.30;;;;;;;-1.21;65.99;100875.30;104893;1273;59343;-72
2022/03/05 06:04:56;;;;;;;6.00;1.20;;;;;;;-1.17;66.48;100878.23;104468;1273;1002991;-73
2022/03/05 06:07:45;;;;;;;6.40;1.30;;;;;;;-1.13;66.24;100877.45;105253;1274;71709;-71
2022/03/05 06:10:33;;;;;;;5.50;1.40;;;;;;;-1.08;66.59;100878.05;104954;1273;67162;-72
2022/03/05 06:13:21;;;;;;;8.40;1.60;;;;;;;-1.02;66.64;100878.33;105031;1273;73067;-72
2022/03/05 06:16:12;;;;;;;33.90;9.10;;;;;;;-0.97;66.59;100877.20;105235;1274;59514;-72
2022/03/05 06:18:59;;;;;;;25.00;6.50;;;;;;;-0.90;65.86;100879.86;105159;1273;60705;-72
2022/03/05 06:21:45;;;;;;;21.10;5.60;;;;;;;-0.87;65.38;100881.38;105043;1273;71849;-72
2022/03/05 06:24:33;;;;;;;13.00;2.40;;;;;;;-0.83;65.43;100877.48;104996;1273;68172;-72
2022/03/05 06:27:20;;;;;;;9.30;2.40;;;;;;;-0.79;65.56;100878.27;104643;1274;73245;-72
2022/03/05 06:30:08;;;;;;;9.20;1.80;;;;;;;-0.71;65.34;100885.45;105013;1273;59404;-71
2022/03/05 06:32:55;;;;;;;6.90;1.30;;;;;;;-0.66;65.26;100889.73;104911;1274;60561;-71
2022/03/05 06:35:42;;;;;;;13.40;3.20;;;;;;;-0.59;65.33;100889.08;104472;1273;1003141;-73
2022/03/05 06:38:29;;;;;;;9.40;2.50;;;;;;;-0.53;65.00;100893.84;104709;1273;66722;-72
2022/03/05 06:41:17;;;;;;;7.50;1.50;;;;;;;-0.49;64.35;100896.74;104969;1274;73071;-71
2022/03/05 06:44:06;;;;;;;7.10;1.30;;;;;;;-0.49;63.46;100894.81;105003;1274;59278;-71
2022/03/05 06:46:54;;;;;;;5.10;1.10;;;;;;;-0.50;63.02;100893.09;105100;1273;60551;-73
2022/03/05 06:49:42;;;;;;;5.20;1.20;;;;;;;-0.50;62.61;100900.77;105052;1274;71528;-73
2022/03/05 06:52:29;;;;;;;4.50;1.30;;;;;;;-0.50;62.57;100901.63;104638;1274;66691;-71
2022/03/05 06:55:17;;;;;;;5.80;1.20;;;;;;;-0.45;62.91;100900.67;104094;1273;1003367;-71
2022/03/05 06:58:04;;;;;;;5.30;1.40;;;;;;;-0.37;63.07;100902.61;105239;1273;59443;-71
2022/03/05 07:00:51;;;;;;;5.90;1.50;;;;;;;-0.30;63.16;100905.44;103923;1273;1003641;-71
2022/03/05 07:03:38;;;;;;;7.20;1.60;;;;;;;-0.27;62.53;100904.70;105134;1273;72628;-71
2022/03/05 07:06:27;;;;;;;7.40;1.70;;;;;;;-0.25;62.81;100906.73;105099;1273;68304;-72
2022/03/05 07:09:14;;;;;;;8.90;1.90;;;;;;;-0.20;62.80;100905.59;104745;1273;73867;-71
2022/03/05 07:12:01;;;;;;;9.90;2.20;;;;;;;-0.14;62.39;100903.73;104772;1273;59387;-70
2022/03/05 07:14:49;;;;;;;7.60;1.70;;;;;;;-0.13;61.44;100905.80;104809;1274;59391;-71
2022/03/05 07:17:36;;;;;;;4.90;1.30;;;;;;;-0.12;60.85;100907.35;104874;1274;72551;-71
2022/03/05 07:20:24;;;;;;;6.50;1.50;;;;;;;-0.07;60.75;100910.58;105048;1273;66883;-71
2022/03/05 07:23:11;;;;;;;5.80;1.30;;;;;;;-0.07;60.68;100905.86;105082;1272;73281;-72
2022/03/05 07:25:58;;;;;;;5.40;1.40;;;;;;;-0.03;60.34;100910.83;104329;1273;1003006;-72
2022/03/05 07:28:46;;;;;;;6.10;1.40;;;;;;;0.50;60.44;100909.33;104939;1273;60926;-73
2022/03/05 07:31:35;;;;;;;7.10;1.30;;;;;;;2.03;56.92;100906.52;104901;1273;72661;-71
2022/03/05 07:34:22;;;;;;;8.90;1.80;;;;;;;2.02;55.04;100907.07;103956;1273;1003027;-71
2022/03/05 07:37:09;;;;;;;9.60;2.10;;;;;;;1.95;54.24;100910.41;104910;1273;71684;-72
2022/03/05 07:39:58;;;;;;;6.90;1.90;;;;;;;2.50;54.54;100907.04;105015;1273;59374;-72
2022/03/05 07:42:44;;;;;;;7.40;1.80;;;;;;;3.22;52.85;100908.59;105074;1273;60411;-72
2022/03/05 07:45:32;;;;;;;7.50;1.50;;;;;;;4.49;51.36;100905.91;105514;1273;72550;-72
2022/03/05 07:48:20;;;;;;;6.80;1.50;;;;;;;6.63;47.06;100892.66;105109;1273;66913;-73
2022/03/05 07:51:08;;;;;;;7.20;1.10;;;;;;;8.48;40.38;100886.86;104886;1273;72905;-74
2022/03/05 07:53:56;;;;;;;6.70;1.60;;;;;;;8.52;39.51;100886.30;105289;1273;59491;-73
2022/03/05 07:56:43;;;;;;;7.50;1.60;;;;;;;10.06;36.80;100884.11;105066;1274;60680;-74
2022/03/05 07:59:30;;;;;;;5.30;1.30;;;;;;;11.10;34.67;100880.16;105028;1274;73150;-74
2022/03/05 08:02:18;;;;;;;4.60;1.00;;;;;;;10.41;34.05;100881.11;104612;1274;66933;-74
2022/03/05 08:05:06;;;;;;;5.10;1.20;;;;;;;9.97;32.87;100877.42;104828;1274;73271;-74
2022/03/05 08:07:54;;;;;;;5.30;1.30;;;;;;;10.10;33.75;100884.05;105167;1274;59505;-75
2022/03/05 08:10:42;;;;;;;6.50;1.50;;;;;;;11.57;32.41;100884.23;105094;1274;60592;-73
2022/03/05 08:13:31;;;;;;;7.00;1.50;;;;;;;11.81;32.06;100884.56;104852;1274;72272;-75
2022/03/05 08:16:20;;;;;;;5.60;1.10;;;;;;;11.73;31.06;100886.38;105127;1274;66865;-75
2022/03/05 08:19:07;;;;;;;7.20;1.50;;;;;;;10.92;31.82;100888.81;104633;1274;72761;-74
2022/03/05 08:21:59;;;;;;;8.80;3.40;;;;;;;10.28;32.84;100894.28;104508;1274;344673;-74
2022/03/05 08:24:46;;;;;;;7.50;2.40;;;;;;;10.62;32.66;100895.18;104753;1274;60427;-74
2022/03/05 08:27:33;;;;;;;7.00;2.00;;;;;;;11.76;31.59;100887.17;105071;1273;72294;-75
2022/03/05 08:30:21;;;;;;;7.10;1.80;;;;;;;13.21;29.33;100889.10;105106;1273;67212;-75
2022/03/05 08:33:09;;;;;;;7.70;2.30;;;;;;;13.04;28.01;100886.21;105234;1273;71770;-75
2022/03/05 08:35:56;;;;;;;13.40;6.80;;;;;;;13.09;28.30;100889.43;105064;1274;59848;-74
2022/03/05 08:38:43;;;;;;;6.90;1.60;;;;;;;13.05;28.20;100887.41;104704;1273;59676;-75
2022/03/05 08:41:30;;;;;;;14.60;6.70;;;;;;;11.95;28.67;100888.23;105117;1273;71604;-75
2022/03/05 08:44:18;;;;;;;9.00;2.90;;;;;;;11.12;30.03;100887.15;104950;1273;67056;-74
2022/03/05 08:47:06;;;;;;;11.50;2.50;;;;;;;10.30;31.41;100893.80;104978;1273;71619;-74
2022/03/05 08:49:53;;;;;;;14.30;7.00;;;;;;;9.33;32.14;100899.75;105285;1274;59155;-75
2022/03/05 08:52:41;;;;;;;6.80;1.90;;;;;;;8.41;33.09;100906.50;104900;1274;59416;-74
2022/03/05 08:55:28;;;;;;;6.20;1.30;;;;;;;7.53;35.16;100912.61;104850;1274;72503;-72
2022/03/05 08:58:16;;;;;;;5.70;1.20;;;;;;;6.80;36.59;100911.48;104781;1274;68126;-73
2022/03/05 09:01:04;;;;;;;7.20;1.70;;;;;;;6.22;37.78;100916.30;105190;1273;73611;-73
2022/03/05 09:03:51;;;;;;;5.40;1.40;;;;;;;5.71;39.32;100917.13;105362;1274;59346;-73
2022/03/05 09:06:38;;;;;;;5.40;1.50;;;;;;;5.99;40.22;100915.71;105088;1273;60743;-73
2022/03/05 09:09:25;;;;;;;5.30;1.30;;;;;;;7.96;37.38;100911.63;104769;1273;72942;-72
2022/03/05 09:12:12;;;;;;;6.90;1.20;;;;;;;8.62;35.73;100913.33;104946;1273;67580;-74
2022/03/05 09:14:59;;;;;;;7.90;1.50;;;;;;;8.71;35.47;100911.60;104770;1273;71592;-73
2022/03/05 09:17:46;;;;;;;5.90;1.40;;;;;;;8.69;35.39;100909.23;105126;1273;59767;-73
2022/03/05 09:20:34;;;;;;;5.40;1.00;;;;;;;8.14;36.11;100907.82;105193;1273;60631;-73
2022/03/05 09:23:22;;;;;;;7.60;1.40;;;;;;;7.63;37.04;100918.08;104751;1275;72677;-73
2022/03/05 09:26:09;;;;;;;6.30;1.10;;;;;;;7.33;37.54;100920.85;105181;1273;68190;-73
2022/03/05 09:28:56;;;;;;;13.60;6.50;;;;;;;6.88;38.46;100920.27;104917;1273;71739;-73
2022/03/05 09:31:44;;;;;;;11.20;2.90;;;;;;;6.38;39.54;100923.29;105374;1273;59344;-73
2022/03/05 09:34:31;;;;;;;6.30;1.40;;;;;;;5.91;40.59;100931.40;105086;1273;60390;-73
2022/03/05 09:37:18;;;;;;;5.80;1.40;;;;;;;5.56;41.11;100932.73;104970;1273;71399;-74
2022/03/05 09:40:08;;;;;;;5.50;1.40;;;;;;;5.42;41.16;100934.02;104885;1273;67045;-74
2022/03/05 09:42:56;;;;;;;5.90;1.30;;;;;;;5.31;41.30;100935.02;104129;1273;1003802;-72
2022/03/05 09:45:44;;;;;;;6.50;1.20;;;;;;;5.13;41.69;100933.30;104967;1273;59338;-73
2022/03/05 09:48:32;;;;;;;8.40;1.50;;;;;;;5.04;42.44;100934.35;104715;1274;59195;-73
2022/03/05 09:51:22;;;;;;;7.30;1.50;;;;;;;4.88;42.68;100935.04;105160;1273;70320;-74
2022/03/05 09:54:09;;;;;;;9.50;3.10;;;;;;;5.35;43.66;100931.11;105441;1274;67913;-75
2022/03/05 09:56:56;;;;;;;6.20;1.60;;;;;;;7.78;39.96;100923.09;105295;1273;73243;-75
2022/03/05 09:59:44;;;;;;;7.60;1.90;;;;;;;8.01;36.85;100915.58;105180;1273;59385;-74
2022/03/05 10:02:32;;;;;;;10.80;3.50;;;;;;;7.70;37.32;100920.73;104900;1273;60432;-74
2022/03/05 10:05:27;;;;;;;9.60;3.90;;;;;;;7.26;37.43;100923.52;104978;1274;72569;-73
2022/03/05 10:08:16;;;;;;;8.10;2.70;;;;;;;6.80;37.43;100927.00;105108;1274;67499;-73
2022/03/05 10:11:09;;;;;;;8.50;3.30;;;;;;;6.45;37.96;100931.27;104968;1273;71410;-73
2022/03/05 10:13:56;;;;;;;18.30;8.90;;;;;;;6.03;39.59;100934.05;105028;1274;59375;-72
2022/03/05 10:16:44;;;;;;;5.90;1.50;;;;;;;5.69;40.10;100939.58;104583;1276;59604;-74
2022/03/05 10:19:35;;;;;;;6.50;1.30;;;;;;;5.72;40.63;100935.74;104793;1274;73052;-72
2022/03/05 10:22:23;;;;;;;4.90;1.10;;;;;;;5.57;40.54;100936.02;104858;1273;68282;-72
2022/03/05 10:25:11;;;;;;;6.80;1.60;;;;;;;6.15;39.69;100928.36;104975;1273;71055;-73
2022/03/05 10:28:11;;;;;;;7.20;1.60;;;;;;;8.67;36.46;100921.54;105281;1273;59307;-73
2022/03/05 10:31:04;;;;;;;5.90;1.40;;;;;;;8.97;34.07;100925.88;105144;1273;61059;-73
2022/03/05 10:33:51;;;;;;;5.90;1.40;;;;;;;8.07;35.08;100921.96;105064;1273;72869;-74
2022/03/05 10:36:38;;;;;;;5.50;1.50;;;;;;;7.44;36.32;100927.72;105172;1274;67952;-74
2022/03/05 10:39:29;;;;;;;7.30;1.40;;;;;;;8.21;36.18;100920.70;104958;1273;72853;-72
2022/03/05 10:42:25;;;;;;;5.70;1.30;;;;;;;8.26;35.74;100919.88;102937;1274;1004491;-73
2022/03/05 10:45:19;;;;;;;5.10;1.50;;;;;;;8.24;35.30;100924.95;105153;1274;61031;-75
2022/03/05 10:48:24;;;;;;;5.20;1.40;;;;;;;9.82;33.81;100920.01;105377;1273;71266;-73
2022/03/05 10:51:15;;;;;;;6.60;1.40;;;;;;;9.36;33.21;100915.10;103438;1274;1003635;-74
2022/03/05 10:54:02;;;;;;;7.60;1.50;;;;;;;9.10;33.81;100912.39;105043;1273;72167;-74
2022/03/05 10:56:49;;;;;;;7.50;1.90;;;;;;;8.85;34.08;100913.48;105006;1273;59324;-74
2022/03/05 10:59:45;;;;;;;7.90;2.00;;;;;;;9.04;34.35;100917.02;105163;1274;59291;-74
2022/03/05 11:02:32;;;;;;;6.10;1.30;;;;;;;10.96;32.64;100911.45;105292;1273;72598;-74
2022/03/05 11:05:19;;;;;;;6.50;1.70;;;;;;;11.93;30.54;100900.80;105102;1274;68776;-73
2022/03/05 11:08:12;;;;;;;6.00;1.30;;;;;;;13.01;28.50;100899.64;104937;1274;71758;-73
2022/03/05 11:11:00;;;;;;;7.00;1.70;;;;;;;13.35;27.76;100895.48;104823;1274;59381;-73
2022/03/05 11:13:48;;;;;;;6.80;1.70;;;;;;;14.44;26.85;100888.11;104765;1273;60505;-73
2022/03/05 11:16:36;;;;;;;6.40;1.60;;;;;;;15.03;25.73;100888.50;105114;1274;71037;-75
2022/03/05 11:19:24;;;;;;;5.10;1.30;;;;;;;16.05;24.35;100881.09;105955;1273;66828;-75
2022/03/05 11:22:17;;;;;;;5.30;1.20;;;;;;;16.84;23.30;100874.77;105160;1273;71431;-75
2022/03/05 11:25:06;;;;;;;5.80;1.10;;;;;;;17.47;22.29;100867.04;105265;1274;59294;-76
2022/03/05 11:28:00;;;;;;;5.80;1.40;;;;;;;17.80;21.67;100856.66;104929;1274;59252;-75
2022/03/05 11:30:47;;;;;;;4.90;1.20;;;;;;;18.08;20.92;100862.49;104883;1274;72550;-76
2022/03/05 11:33:43;;;;;;;7.50;1.40;;;;;;;17.57;21.27;100858.20;105262;1273;67919;-76
2022/03/05 11:36:38;;;;;;;6.80;1.40;;;;;;;17.50;21.29;100862.55;105064;1274;72843;-75
2022/03/05 11:39:37;;;;;;;5.40;1.40;;;;;;;17.25;21.59;100858.17;104927;1274;59298;-75
2022/03/05 11:42:33;;;;;;;7.00;1.30;;;;;;;16.99;21.33;100852.77;104848;1274;59380;-76
2022/03/05 11:45:32;;;;;;;6.50;1.20;;;;;;;16.63;21.76;100853.91;104920;1274;71189;-75
2022/03/05 11:48:23;;;;;;;7.50;1.30;;;;;;;16.33;22.08;100850.12;105378;1274;68495;-77
2022/03/05 11:51:17;;;;;;;5.40;1.30;;;;;;;15.88;22.64;100848.16;105276;1274;71656;-75
2022/03/05 11:54:15;;;;;;;6.10;1.30;;;;;;;15.47;23.33;100847.27;105197;1274;59305;-75
2022/03/05 11:57:22;;;;;;;6.50;1.30;;;;;;;15.01;23.68;100849.22;105244;1274;59587;-75
2022/03/05 12:00:11;;;;;;;5.10;1.20;;;;;;;14.77;23.59;100845.42;104846;1274;72259;-75
2022/03/05 12:03:03;;;;;;;6.70;1.40;;;;;;;14.34;24.56;100842.34;105171;1274;66847;-76
2022/03/05 12:05:53;;;;;;;8.00;1.70;;;;;;;13.98;25.00;100844.47;105185;1273;71752;-76
2022/03/05 12:08:50;;;;;;;6.50;1.80;;;;;;;13.70;25.48;100842.97;105249;1273;59363;-75
2022/03/05 12:11:38;;;;;;;6.10;1.30;;;;;;;13.14;25.93;100844.13;104890;1274;59377;-74
2022/03/05 12:15:02;;;;;;;6.10;1.40;;;;;;;12.76;26.62;100844.48;105277;1273;71190;-74
2022/03/05 12:17:51;;;;;;;5.80;1.10;;;;;;;12.52;26.99;100840.23;105668;1273;67144;-75
2022/03/05 12:20:42;;;;;;;5.70;1.20;;;;;;;12.22;27.70;100840.13;105131;1274;73165;-75
2022/03/05 12:23:30;;;;;;;6.40;1.40;;;;;;;12.04;28.04;100842.08;105277;1272;59208;-76
2022/03/05 12:26:24;;;;;;;6.60;1.40;;;;;;;11.88;28.31;100843.56;105202;1274;60592;-75
2022/03/05 12:29:12;;;;;;;6.60;1.30;;;;;;;11.66;28.67;100845.29;105220;1274;73030;-75
2022/03/05 12:31:59;;;;;;;5.70;1.30;;;;;;;11.47;28.80;100844.11;104994;1273;68146;-74
2022/03/05 12:34:48;;;;;;;5.80;1.10;;;;;;;10.96;29.01;100849.30;104935;1273;72979;-74
2022/03/05 12:37:36;;;;;;;7.70;1.60;;;;;;;10.42;30.01;100847.70;105222;1273;59400;-75
2022/03/05 12:40:26;;;;;;;7.30;1.50;;;;;;;10.07;31.02;100848.45;104705;1273;59680;-73
2022/03/05 12:43:13;;;;;;;5.70;1.20;;;;;;;9.41;31.25;100850.56;105290;1273;72652;-75
2022/03/05 12:46:00;;;;;;;8.70;1.60;;;;;;;8.77;31.75;100851.27;103542;1274;1003617;-72
2022/03/05 12:48:52;;;;;;;6.50;1.40;;;;;;;8.21;33.06;100849.64;105139;1274;72824;-71
2022/03/05 12:51:42;;;;;;;6.70;1.60;;;;;;;7.80;33.89;100850.76;105227;1274;59288;-73
2022/03/05 12:54:29;;;;;;;7.20;1.70;;;;;;;7.33;34.88;100853.05;105273;1274;59389;-72
2022/03/05 12:57:16;;;;;;;9.20;1.50;;;;;;;7.01;35.62;100858.39;105297;1274;73928;-73